sensor_id;sensor_type;location;lat;lon;timestamp;P1;durP1;ratioP1;P2;durP2;ratioP2
6111;SDS011;3086;48.802;9.394;2022-08-02T00:02:33;1.73;;;1.63;;
6111;SDS011;3086;48.802;9.394;2022-08-02T00:05:56;1.93;;;1.80;;
6111;SDS011;3086;48.802;9.394;2022-08-02T00:09:17;1.90;;;1.70;;
6111;SDS011;3086;48.802;9.394;2022-08-02T00:12:39;1.80;;;1.70;;
6111;SDS011;3086;48.802;9.394;2022-08-02T00:16:00;1.60;;;1.50;;
6111;SDS011;3086;48.802;9.394;2022-08-02T00:19:22;1.73;;;1.63;;
6111;SDS011;3086;48.802;9.394;2022-08-02T00:22:45;2.23;;;2.00;;
6111;SDS011;3086;48.802;9.394;2022-08-02T00:26:06;1.80;;;1.70;;
6111;SDS011;3086;48.802;9.394;2022-08-02T00:29:28;2.30;;;2.10;;
6111;SDS011;3086;48.802;9.394;2022-08-02T00:32:50;1.80;;;1.70;;
6111;SDS011;3086;48.802;9.394;2022-08-02T00:36:11;1.90;;;1.70;;
6111;SDS011;3086;48.802;9.394;2022-08-02T00:39:34;1.77;;;1.60;;
6111;SDS011;3086;48.802;9.394;2022-08-02T00:42:59;2.53;;;2.00;;
6111;SDS011;3086;48.802;9.394;2022-08-02T00:46:23;4.00;;;1.90;;
6111;SDS011;3086;48.802;9.394;2022-08-02T00:49:44;1.73;;;1.63;;
6111;SDS011;3086;48.802;9.394;2022-08-02T00:53:06;1.97;;;1.70;;
6111;SDS011;3086;48.802;9.394;2022-08-02T00:56:30;1.90;;;1.77;;
6111;SDS011;3086;48.802;9.394;2022-08-02T00:59:51;1.90;;;1.80;;
6111;SDS011;3086;48.802;9.394;2022-08-02T01:03:13;2.20;;;2.10;;
6111;SDS011;3086;48.802;9.394;2022-08-02T01:06:35;2.40;;;2.10;;
6111;SDS011;3086;48.802;9.394;2022-08-02T01:09:56;2.40;;;2.20;;
6111;SDS011;3086;48.802;9.394;2022-08-02T01:13:20;2.37;;;2.17;;
6111;SDS011;3086;48.802;9.394;2022-08-02T01:16:44;2.40;;;2.20;;
6111;SDS011;3086;48.802;9.394;2022-08-02T01:20:11;3.53;;;2.20;;
6111;SDS011;3086;48.802;9.394;2022-08-02T01:27:50;3.73;;;2.30;;
6111;SDS011;3086;48.802;9.394;2022-08-02T01:31:25;2.40;;;2.20;;
6111;SDS011;3086;48.802;9.394;2022-08-02T01:34:50;2.27;;;2.07;;
6111;SDS011;3086;48.802;9.394;2022-08-02T01:38:15;2.70;;;2.37;;
6111;SDS011;3086;48.802;9.394;2022-08-02T01:41:41;2.40;;;2.20;;
6111;SDS011;3086;48.802;9.394;2022-08-02T01:45:05;4.23;;;2.50;;
6111;SDS011;3086;48.802;9.394;2022-08-02T01:48:29;2.70;;;2.50;;
6111;SDS011;3086;48.802;9.394;2022-08-02T01:51:52;4.10;;;2.70;;
6111;SDS011;3086;48.802;9.394;2022-08-02T01:55:32;2.90;;;2.60;;
6111;SDS011;3086;48.802;9.394;2022-08-02T01:58:55;4.83;;;2.70;;
6111;SDS011;3086;48.802;9.394;2022-08-02T02:02:18;2.87;;;2.63;;
6111;SDS011;3086;48.802;9.394;2022-08-02T02:05:40;4.17;;;2.53;;
6111;SDS011;3086;48.802;9.394;2022-08-02T02:09:03;2.63;;;2.43;;
6111;SDS011;3086;48.802;9.394;2022-08-02T02:12:25;3.10;;;2.77;;
6111;SDS011;3086;48.802;9.394;2022-08-02T02:15:47;3.27;;;2.97;;
6111;SDS011;3086;48.802;9.394;2022-08-02T02:19:11;2.63;;;2.43;;
6111;SDS011;3086;48.802;9.394;2022-08-02T02:22:36;4.07;;;3.00;;
6111;SDS011;3086;48.802;9.394;2022-08-02T02:25:57;2.93;;;2.70;;
6111;SDS011;3086;48.802;9.394;2022-08-02T02:29:20;3.00;;;2.60;;
6111;SDS011;3086;48.802;9.394;2022-08-02T02:32:42;3.30;;;3.00;;
6111;SDS011;3086;48.802;9.394;2022-08-02T02:36:06;5.47;;;3.10;;
6111;SDS011;3086;48.802;9.394;2022-08-02T02:39:28;3.03;;;2.50;;
6111;SDS011;3086;48.802;9.394;2022-08-02T02:42:50;3.83;;;2.90;;
6111;SDS011;3086;48.802;9.394;2022-08-02T02:46:12;7.20;;;3.17;;
6111;SDS011;3086;48.802;9.394;2022-08-02T02:49:34;3.97;;;3.13;;
6111;SDS011;3086;48.802;9.394;2022-08-02T02:52:58;3.07;;;2.83;;
6111;SDS011;3086;48.802;9.394;2022-08-02T02:56:20;3.90;;;3.40;;
6111;SDS011;3086;48.802;9.394;2022-08-02T02:59:42;4.53;;;3.30;;
6111;SDS011;3086;48.802;9.394;2022-08-02T03:03:04;4.50;;;3.47;;
6111;SDS011;3086;48.802;9.394;2022-08-02T03:06:26;3.60;;;2.80;;
6111;SDS011;3086;48.802;9.394;2022-08-02T03:09:49;6.10;;;2.97;;
6111;SDS011;3086;48.802;9.394;2022-08-02T03:13:11;4.20;;;3.10;;
6111;SDS011;3086;48.802;9.394;2022-08-02T03:16:33;5.50;;;3.07;;
6111;SDS011;3086;48.802;9.394;2022-08-02T03:19:54;3.37;;;3.07;;
6111;SDS011;3086;48.802;9.394;2022-08-02T03:23:16;3.37;;;3.07;;
6111;SDS011;3086;48.802;9.394;2022-08-02T03:26:39;4.13;;;2.90;;
6111;SDS011;3086;48.802;9.394;2022-08-02T03:30:01;3.13;;;2.83;;
6111;SDS011;3086;48.802;9.394;2022-08-02T03:33:23;7.87;;;3.33;;
6111;SDS011;3086;48.802;9.394;2022-08-02T03:36:46;4.47;;;3.20;;
6111;SDS011;3086;48.802;9.394;2022-08-02T03:40:09;4.90;;;3.20;;
6111;SDS011;3086;48.802;9.394;2022-08-02T03:43:33;8.30;;;3.47;;
6111;SDS011;3086;48.802;9.394;2022-08-02T03:46:55;5.67;;;2.97;;
6111;SDS011;3086;48.802;9.394;2022-08-02T03:50:17;3.47;;;3.17;;
6111;SDS011;3086;48.802;9.394;2022-08-02T03:53:41;6.17;;;3.23;;
6111;SDS011;3086;48.802;9.394;2022-08-02T03:57:04;4.23;;;3.30;;
6111;SDS011;3086;48.802;9.394;2022-08-02T04:00:27;4.60;;;3.30;;
6111;SDS011;3086;48.802;9.394;2022-08-02T04:03:49;4.73;;;3.50;;
6111;SDS011;3086;48.802;9.394;2022-08-02T04:07:10;3.90;;;3.10;;
6111;SDS011;3086;48.802;9.394;2022-08-02T04:10:32;4.03;;;3.47;;
6111;SDS011;3086;48.802;9.394;2022-08-02T04:14:14;4.67;;;3.23;;
6111;SDS011;3086;48.802;9.394;2022-08-02T04:17:38;5.17;;;3.33;;
6111;SDS011;3086;48.802;9.394;2022-08-02T04:21:01;4.00;;;3.10;;
6111;SDS011;3086;48.802;9.394;2022-08-02T04:24:24;4.10;;;3.30;;
6111;SDS011;3086;48.802;9.394;2022-08-02T04:27:47;4.00;;;2.97;;
6111;SDS011;3086;48.802;9.394;2022-08-02T04:31:09;4.23;;;2.87;;
6111;SDS011;3086;48.802;9.394;2022-08-02T04:34:32;4.60;;;3.03;;
6111;SDS011;3086;48.802;9.394;2022-08-02T04:37:53;5.00;;;3.10;;
6111;SDS011;3086;48.802;9.394;2022-08-02T04:41:15;4.37;;;3.23;;
6111;SDS011;3086;48.802;9.394;2022-08-02T04:44:37;4.03;;;3.00;;
6111;SDS011;3086;48.802;9.394;2022-08-02T04:47:58;3.53;;;3.07;;
6111;SDS011;3086;48.802;9.394;2022-08-02T04:51:21;3.30;;;3.00;;
6111;SDS011;3086;48.802;9.394;2022-08-02T04:54:43;3.53;;;3.23;;
6111;SDS011;3086;48.802;9.394;2022-08-02T04:58:04;3.27;;;2.97;;
6111;SDS011;3086;48.802;9.394;2022-08-02T05:01:26;4.97;;;3.60;;
6111;SDS011;3086;48.802;9.394;2022-08-02T05:04:48;3.20;;;3.00;;
6111;SDS011;3086;48.802;9.394;2022-08-02T05:08:12;3.53;;;3.20;;
6111;SDS011;3086;48.802;9.394;2022-08-02T05:11:33;4.03;;;3.63;;
6111;SDS011;3086;48.802;9.394;2022-08-02T05:14:55;4.83;;;3.10;;
6111;SDS011;3086;48.802;9.394;2022-08-02T05:18:16;3.30;;;3.03;;
6111;SDS011;3086;48.802;9.394;2022-08-02T05:21:38;3.50;;;2.93;;
6111;SDS011;3086;48.802;9.394;2022-08-02T05:25:01;4.33;;;3.10;;
6111;SDS011;3086;48.802;9.394;2022-08-02T05:28:23;4.83;;;3.10;;
6111;SDS011;3086;48.802;9.394;2022-08-02T05:31:45;6.20;;;3.10;;
6111;SDS011;3086;48.802;9.394;2022-08-02T05:35:06;4.13;;;2.87;;
6111;SDS011;3086;48.802;9.394;2022-08-02T05:38:28;2.90;;;2.60;;
6111;SDS011;3086;48.802;9.394;2022-08-02T05:41:52;3.70;;;3.00;;
6111;SDS011;3086;48.802;9.394;2022-08-02T05:45:14;3.20;;;2.43;;
6111;SDS011;3086;48.802;9.394;2022-08-02T05:48:36;2.87;;;2.47;;
6111;SDS011;3086;48.802;9.394;2022-08-02T05:51:59;2.83;;;2.57;;
6111;SDS011;3086;48.802;9.394;2022-08-02T05:55:25;3.17;;;2.87;;
6111;SDS011;3086;48.802;9.394;2022-08-02T05:58:51;3.93;;;2.60;;
6111;SDS011;3086;48.802;9.394;2022-08-02T06:02:16;2.90;;;2.60;;
6111;SDS011;3086;48.802;9.394;2022-08-02T06:05:48;3.13;;;2.67;;
6111;SDS011;3086;48.802;9.394;2022-08-02T06:09:13;5.30;;;2.70;;
6111;SDS011;3086;48.802;9.394;2022-08-02T06:12:38;2.80;;;2.60;;
6111;SDS011;3086;48.802;9.394;2022-08-02T06:16:03;2.70;;;2.47;;
6111;SDS011;3086;48.802;9.394;2022-08-02T06:19:26;2.40;;;2.30;;
6111;SDS011;3086;48.802;9.394;2022-08-02T06:22:47;4.30;;;2.60;;
6111;SDS011;3086;48.802;9.394;2022-08-02T06:26:09;2.70;;;2.50;;
6111;SDS011;3086;48.802;9.394;2022-08-02T06:29:32;2.53;;;2.33;;
6111;SDS011;3086;48.802;9.394;2022-08-02T06:32:55;2.93;;;2.70;;
6111;SDS011;3086;48.802;9.394;2022-08-02T06:36:18;3.00;;;2.70;;
6111;SDS011;3086;48.802;9.394;2022-08-02T06:39:45;3.83;;;2.83;;
6111;SDS011;3086;48.802;9.394;2022-08-02T06:43:10;3.20;;;2.90;;
6111;SDS011;3086;48.802;9.394;2022-08-02T06:46:33;3.43;;;2.80;;
6111;SDS011;3086;48.802;9.394;2022-08-02T06:49:56;3.20;;;2.93;;
6111;SDS011;3086;48.802;9.394;2022-08-02T06:53:17;4.70;;;3.40;;
6111;SDS011;3086;48.802;9.394;2022-08-02T06:56:39;3.83;;;3.40;;
6111;SDS011;3086;48.802;9.394;2022-08-02T07:00:00;4.30;;;3.90;;
6111;SDS011;3086;48.802;9.394;2022-08-02T07:03:25;8.07;;;3.67;;
6111;SDS011;3086;48.802;9.394;2022-08-02T07:06:48;4.63;;;3.37;;
6111;SDS011;3086;48.802;9.394;2022-08-02T07:10:10;5.23;;;3.80;;
6111;SDS011;3086;48.802;9.394;2022-08-02T07:13:32;5.70;;;3.70;;
6111;SDS011;3086;48.802;9.394;2022-08-02T07:16:54;5.63;;;3.87;;
6111;SDS011;3086;48.802;9.394;2022-08-02T07:20:16;5.23;;;4.30;;
6111;SDS011;3086;48.802;9.394;2022-08-02T07:23:39;4.60;;;4.20;;
6111;SDS011;3086;48.802;9.394;2022-08-02T07:27:00;4.83;;;4.20;;
6111;SDS011;3086;48.802;9.394;2022-08-02T07:30:22;4.17;;;3.87;;
6111;SDS011;3086;48.802;9.394;2022-08-02T07:33:43;4.20;;;3.80;;
6111;SDS011;3086;48.802;9.394;2022-08-02T07:37:05;4.77;;;4.20;;
6111;SDS011;3086;48.802;9.394;2022-08-02T07:40:30;4.17;;;3.70;;
6111;SDS011;3086;48.802;9.394;2022-08-02T07:43:51;4.33;;;3.93;;
6111;SDS011;3086;48.802;9.394;2022-08-02T07:47:13;4.93;;;4.43;;
6111;SDS011;3086;48.802;9.394;2022-08-02T07:50:34;4.40;;;4.00;;
6111;SDS011;3086;48.802;9.394;2022-08-02T07:53:56;7.67;;;4.33;;
6111;SDS011;3086;48.802;9.394;2022-08-02T07:57:19;6.20;;;4.33;;
6111;SDS011;3086;48.802;9.394;2022-08-02T08:00:41;4.30;;;3.90;;
6111;SDS011;3086;48.802;9.394;2022-08-02T08:04:03;5.07;;;4.67;;
6111;SDS011;3086;48.802;9.394;2022-08-02T08:07:25;5.50;;;4.30;;
6111;SDS011;3086;48.802;9.394;2022-08-02T08:10:47;6.57;;;4.60;;
6111;SDS011;3086;48.802;9.394;2022-08-02T08:14:10;7.13;;;4.60;;
6111;SDS011;3086;48.802;9.394;2022-08-02T08:17:32;5.57;;;5.00;;
6111;SDS011;3086;48.802;9.394;2022-08-02T08:20:54;7.50;;;4.90;;
6111;SDS011;3086;48.802;9.394;2022-08-02T08:24:15;6.20;;;4.97;;
6111;SDS011;3086;48.802;9.394;2022-08-02T08:27:37;4.47;;;4.07;;
6111;SDS011;3086;48.802;9.394;2022-08-02T08:31:00;6.00;;;4.37;;
6111;SDS011;3086;48.802;9.394;2022-08-02T08:34:22;6.90;;;4.90;;
6111;SDS011;3086;48.802;9.394;2022-08-02T08:37:43;5.47;;;4.30;;
6111;SDS011;3086;48.802;9.394;2022-08-02T08:41:05;5.47;;;4.97;;
6111;SDS011;3086;48.802;9.394;2022-08-02T08:44:26;5.27;;;4.77;;
6111;SDS011;3086;48.802;9.394;2022-08-02T08:47:51;5.50;;;5.00;;
6111;SDS011;3086;48.802;9.394;2022-08-02T08:51:18;6.53;;;4.80;;
6111;SDS011;3086;48.802;9.394;2022-08-02T08:54:41;5.47;;;4.97;;
6111;SDS011;3086;48.802;9.394;2022-08-02T08:58:05;4.33;;;3.80;;
6111;SDS011;3086;48.802;9.394;2022-08-02T09:01:27;5.17;;;4.67;;
6111;SDS011;3086;48.802;9.394;2022-08-02T09:04:50;6.13;;;4.50;;
6111;SDS011;3086;48.802;9.394;2022-08-02T09:08:11;5.30;;;4.80;;
6111;SDS011;3086;48.802;9.394;2022-08-02T09:11:33;6.10;;;5.50;;
6111;SDS011;3086;48.802;9.394;2022-08-02T09:14:55;4.60;;;4.20;;
6111;SDS011;3086;48.802;9.394;2022-08-02T09:18:17;5.73;;;4.30;;
6111;SDS011;3086;48.802;9.394;2022-08-02T09:21:40;5.00;;;4.53;;
6111;SDS011;3086;48.802;9.394;2022-08-02T09:25:01;5.00;;;4.47;;
6111;SDS011;3086;48.802;9.394;2022-08-02T09:28:26;5.47;;;4.40;;
6111;SDS011;3086;48.802;9.394;2022-08-02T09:31:48;4.50;;;4.10;;
6111;SDS011;3086;48.802;9.394;2022-08-02T09:35:10;4.77;;;4.27;;
6111;SDS011;3086;48.802;9.394;2022-08-02T09:38:34;6.50;;;4.17;;
6111;SDS011;3086;48.802;9.394;2022-08-02T09:42:06;5.67;;;5.17;;
6111;SDS011;3086;48.802;9.394;2022-08-02T09:45:29;4.43;;;4.07;;
6111;SDS011;3086;48.802;9.394;2022-08-02T09:48:53;6.40;;;5.00;;
6111;SDS011;3086;48.802;9.394;2022-08-02T09:52:20;4.10;;;3.70;;
6111;SDS011;3086;48.802;9.394;2022-08-02T09:55:53;4.70;;;4.30;;
6111;SDS011;3086;48.802;9.394;2022-08-02T09:59:15;7.10;;;4.10;;
6111;SDS011;3086;48.802;9.394;2022-08-02T10:02:38;5.10;;;4.10;;
6111;SDS011;3086;48.802;9.394;2022-08-02T10:05:59;4.53;;;4.07;;
6111;SDS011;3086;48.802;9.394;2022-08-02T10:09:21;4.20;;;3.90;;
6111;SDS011;3086;48.802;9.394;2022-08-02T10:12:44;4.17;;;3.77;;
6111;SDS011;3086;48.802;9.394;2022-08-02T10:16:06;3.90;;;3.50;;
6111;SDS011;3086;48.802;9.394;2022-08-02T10:19:27;5.00;;;4.20;;
6111;SDS011;3086;48.802;9.394;2022-08-02T10:22:49;5.73;;;4.00;;
6111;SDS011;3086;48.802;9.394;2022-08-02T10:26:14;4.47;;;3.40;;
6111;SDS011;3086;48.802;9.394;2022-08-02T10:29:38;4.00;;;3.70;;
6111;SDS011;3086;48.802;9.394;2022-08-02T10:33:01;3.57;;;3.27;;
6111;SDS011;3086;48.802;9.394;2022-08-02T10:36:23;3.90;;;3.60;;
6111;SDS011;3086;48.802;9.394;2022-08-02T10:39:46;3.60;;;3.20;;
6111;SDS011;3086;48.802;9.394;2022-08-02T10:43:07;3.57;;;3.27;;
6111;SDS011;3086;48.802;9.394;2022-08-02T10:46:31;6.63;;;3.67;;
6111;SDS011;3086;48.802;9.394;2022-08-02T10:49:54;3.70;;;3.40;;
6111;SDS011;3086;48.802;9.394;2022-08-02T10:53:26;3.37;;;3.03;;
6111;SDS011;3086;48.802;9.394;2022-08-02T10:56:50;3.50;;;3.20;;
6111;SDS011;3086;48.802;9.394;2022-08-02T11:00:25;3.03;;;2.67;;
6111;SDS011;3086;48.802;9.394;2022-08-02T11:03:48;2.70;;;2.50;;
6111;SDS011;3086;48.802;9.394;2022-08-02T11:07:11;2.90;;;2.60;;
6111;SDS011;3086;48.802;9.394;2022-08-02T11:10:35;2.50;;;2.30;;
6111;SDS011;3086;48.802;9.394;2022-08-02T11:13:58;3.13;;;2.27;;
6111;SDS011;3086;48.802;9.394;2022-08-02T11:17:20;2.13;;;2.03;;
6111;SDS011;3086;48.802;9.394;2022-08-02T11:20:43;2.93;;;2.20;;
6111;SDS011;3086;48.802;9.394;2022-08-02T11:24:25;2.73;;;2.47;;
6111;SDS011;3086;48.802;9.394;2022-08-02T11:27:48;2.57;;;2.23;;
6111;SDS011;3086;48.802;9.394;2022-08-02T11:31:10;2.10;;;2.00;;
6111;SDS011;3086;48.802;9.394;2022-08-02T11:34:32;2.30;;;2.20;;
6111;SDS011;3086;48.802;9.394;2022-08-02T11:37:55;2.40;;;2.20;;
6111;SDS011;3086;48.802;9.394;2022-08-02T11:41:17;2.20;;;2.10;;
6111;SDS011;3086;48.802;9.394;2022-08-02T11:44:40;2.60;;;2.00;;
6111;SDS011;3086;48.802;9.394;2022-08-02T11:48:02;3.10;;;2.10;;
6111;SDS011;3086;48.802;9.394;2022-08-02T11:51:24;3.57;;;2.10;;
6111;SDS011;3086;48.802;9.394;2022-08-02T11:54:47;1.87;;;1.77;;
6111;SDS011;3086;48.802;9.394;2022-08-02T11:58:09;2.20;;;2.00;;
6111;SDS011;3086;48.802;9.394;2022-08-02T12:01:32;2.60;;;2.40;;
6111;SDS011;3086;48.802;9.394;2022-08-02T12:04:56;2.67;;;2.47;;
6111;SDS011;3086;48.802;9.394;2022-08-02T12:08:18;2.70;;;2.50;;
6111;SDS011;3086;48.802;9.394;2022-08-02T12:11:45;3.70;;;2.30;;
6111;SDS011;3086;48.802;9.394;2022-08-02T12:15:08;2.30;;;2.10;;
6111;SDS011;3086;48.802;9.394;2022-08-02T12:18:30;3.03;;;2.40;;
6111;SDS011;3086;48.802;9.394;2022-08-02T12:22:10;3.10;;;1.83;;
6111;SDS011;3086;48.802;9.394;2022-08-02T12:25:33;2.47;;;2.20;;
6111;SDS011;3086;48.802;9.394;2022-08-02T12:28:57;3.10;;;2.50;;
6111;SDS011;3086;48.802;9.394;2022-08-02T12:32:22;2.60;;;2.23;;
6111;SDS011;3086;48.802;9.394;2022-08-02T12:35:44;2.50;;;2.30;;
6111;SDS011;3086;48.802;9.394;2022-08-02T12:39:09;4.17;;;2.30;;
6111;SDS011;3086;48.802;9.394;2022-08-02T12:42:32;2.80;;;2.30;;
6111;SDS011;3086;48.802;9.394;2022-08-02T12:46:13;2.80;;;2.60;;
6111;SDS011;3086;48.802;9.394;2022-08-02T12:49:36;2.93;;;2.60;;
6111;SDS011;3086;48.802;9.394;2022-08-02T12:53:04;3.00;;;2.50;;
6111;SDS011;3086;48.802;9.394;2022-08-02T12:56:28;4.80;;;2.50;;
6111;SDS011;3086;48.802;9.394;2022-08-02T12:59:51;2.60;;;2.40;;
6111;SDS011;3086;48.802;9.394;2022-08-02T13:03:14;4.80;;;2.63;;
6111;SDS011;3086;48.802;9.394;2022-08-02T13:06:36;2.70;;;2.50;;
6111;SDS011;3086;48.802;9.394;2022-08-02T13:09:57;2.63;;;2.43;;
6111;SDS011;3086;48.802;9.394;2022-08-02T13:13:19;3.73;;;2.60;;
6111;SDS011;3086;48.802;9.394;2022-08-02T13:16:41;2.73;;;2.53;;
6111;SDS011;3086;48.802;9.394;2022-08-02T13:20:05;3.97;;;2.60;;
6111;SDS011;3086;48.802;9.394;2022-08-02T13:23:28;3.33;;;2.83;;
6111;SDS011;3086;48.802;9.394;2022-08-02T13:26:49;2.40;;;2.13;;
6111;SDS011;3086;48.802;9.394;2022-08-02T13:30:11;2.93;;;2.40;;
6111;SDS011;3086;48.802;9.394;2022-08-02T13:33:33;3.67;;;2.70;;
6111;SDS011;3086;48.802;9.394;2022-08-02T13:36:55;2.93;;;2.57;;
6111;SDS011;3086;48.802;9.394;2022-08-02T13:40:17;2.80;;;2.60;;
6111;SDS011;3086;48.802;9.394;2022-08-02T13:43:39;2.93;;;2.60;;
6111;SDS011;3086;48.802;9.394;2022-08-02T13:47:00;2.80;;;2.53;;
6111;SDS011;3086;48.802;9.394;2022-08-02T13:50:22;3.60;;;2.20;;
6111;SDS011;3086;48.802;9.394;2022-08-02T13:53:45;3.40;;;2.60;;
6111;SDS011;3086;48.802;9.394;2022-08-02T13:57:06;3.47;;;2.60;;
6111;SDS011;3086;48.802;9.394;2022-08-02T14:00:28;4.17;;;2.77;;
6111;SDS011;3086;48.802;9.394;2022-08-02T14:03:50;2.50;;;2.30;;
6111;SDS011;3086;48.802;9.394;2022-08-02T14:07:13;2.73;;;2.53;;
6111;SDS011;3086;48.802;9.394;2022-08-02T14:10:36;2.63;;;2.40;;
6111;SDS011;3086;48.802;9.394;2022-08-02T14:13:58;2.83;;;2.53;;
6111;SDS011;3086;48.802;9.394;2022-08-02T14:17:19;2.63;;;2.43;;
6111;SDS011;3086;48.802;9.394;2022-08-02T14:20:42;2.83;;;2.60;;
6111;SDS011;3086;48.802;9.394;2022-08-02T14:24:04;2.63;;;2.43;;
6111;SDS011;3086;48.802;9.394;2022-08-02T14:27:27;3.07;;;2.40;;
6111;SDS011;3086;48.802;9.394;2022-08-02T14:30:50;5.30;;;2.60;;
6111;SDS011;3086;48.802;9.394;2022-08-02T14:34:12;4.07;;;2.50;;
6111;SDS011;3086;48.802;9.394;2022-08-02T14:37:33;2.93;;;2.40;;
6111;SDS011;3086;48.802;9.394;2022-08-02T14:40:55;2.77;;;2.43;;
6111;SDS011;3086;48.802;9.394;2022-08-02T14:44:18;3.00;;;2.70;;
6111;SDS011;3086;48.802;9.394;2022-08-02T14:47:39;2.50;;;2.30;;
6111;SDS011;3086;48.802;9.394;2022-08-02T14:51:01;2.50;;;2.30;;
6111;SDS011;3086;48.802;9.394;2022-08-02T14:54:23;2.30;;;2.20;;
6111;SDS011;3086;48.802;9.394;2022-08-02T14:57:45;2.60;;;2.40;;
6111;SDS011;3086;48.802;9.394;2022-08-02T15:01:09;2.30;;;2.20;;
6111;SDS011;3086;48.802;9.394;2022-08-02T15:04:31;2.40;;;2.20;;
6111;SDS011;3086;48.802;9.394;2022-08-02T15:07:53;2.00;;;1.90;;
6111;SDS011;3086;48.802;9.394;2022-08-02T15:11:15;3.67;;;2.60;;
6111;SDS011;3086;48.802;9.394;2022-08-02T15:14:36;2.20;;;2.10;;
6111;SDS011;3086;48.802;9.394;2022-08-02T15:17:59;3.70;;;2.57;;
6111;SDS011;3086;48.802;9.394;2022-08-02T15:21:21;3.70;;;2.40;;
6111;SDS011;3086;48.802;9.394;2022-08-02T15:24:43;4.90;;;2.20;;
6111;SDS011;3086;48.802;9.394;2022-08-02T15:28:04;2.10;;;2.00;;
6111;SDS011;3086;48.802;9.394;2022-08-02T15:31:26;2.30;;;2.20;;
6111;SDS011;3086;48.802;9.394;2022-08-02T15:34:49;2.47;;;2.27;;
6111;SDS011;3086;48.802;9.394;2022-08-02T15:38:11;3.53;;;2.50;;
6111;SDS011;3086;48.802;9.394;2022-08-02T15:41:32;2.93;;;2.30;;
6111;SDS011;3086;48.802;9.394;2022-08-02T15:44:54;2.97;;;2.30;;
6111;SDS011;3086;48.802;9.394;2022-08-02T15:48:16;2.10;;;2.00;;
6111;SDS011;3086;48.802;9.394;2022-08-02T15:51:39;2.20;;;2.10;;
6111;SDS011;3086;48.802;9.394;2022-08-02T15:55:00;2.57;;;2.20;;
6111;SDS011;3086;48.802;9.394;2022-08-02T15:58:22;2.10;;;1.90;;
6111;SDS011;3086;48.802;9.394;2022-08-02T16:01:45;4.27;;;2.30;;
6111;SDS011;3086;48.802;9.394;2022-08-02T16:05:07;2.20;;;2.10;;
6111;SDS011;3086;48.802;9.394;2022-08-02T16:08:30;2.07;;;1.97;;
6111;SDS011;3086;48.802;9.394;2022-08-02T16:11:52;2.10;;;2.00;;
6111;SDS011;3086;48.802;9.394;2022-08-02T16:15:14;2.43;;;2.10;;
6111;SDS011;3086;48.802;9.394;2022-08-02T16:18:35;3.00;;;2.00;;
6111;SDS011;3086;48.802;9.394;2022-08-02T16:21:57;2.63;;;1.90;;
6111;SDS011;3086;48.802;9.394;2022-08-02T16:25:20;2.90;;;2.37;;
6111;SDS011;3086;48.802;9.394;2022-08-02T16:28:41;3.00;;;2.50;;
6111;SDS011;3086;48.802;9.394;2022-08-02T16:32:03;2.73;;;2.13;;
6111;SDS011;3086;48.802;9.394;2022-08-02T16:35:25;2.10;;;1.97;;
6111;SDS011;3086;48.802;9.394;2022-08-02T16:38:47;2.30;;;2.10;;
6111;SDS011;3086;48.802;9.394;2022-08-02T16:42:10;2.43;;;1.90;;
6111;SDS011;3086;48.802;9.394;2022-08-02T16:45:31;2.07;;;1.97;;
6111;SDS011;3086;48.802;9.394;2022-08-02T16:48:53;2.03;;;1.93;;
6111;SDS011;3086;48.802;9.394;2022-08-02T16:52:14;2.33;;;2.13;;
6111;SDS011;3086;48.802;9.394;2022-08-02T16:55:36;3.53;;;2.20;;
6111;SDS011;3086;48.802;9.394;2022-08-02T16:58:59;2.00;;;1.90;;
6111;SDS011;3086;48.802;9.394;2022-08-02T17:02:20;2.53;;;2.20;;
6111;SDS011;3086;48.802;9.394;2022-08-02T17:05:42;2.40;;;2.20;;
6111;SDS011;3086;48.802;9.394;2022-08-02T17:09:03;3.23;;;2.30;;
6111;SDS011;3086;48.802;9.394;2022-08-02T17:12:25;2.60;;;2.40;;
6111;SDS011;3086;48.802;9.394;2022-08-02T17:15:48;2.40;;;2.20;;
6111;SDS011;3086;48.802;9.394;2022-08-02T17:19:09;3.73;;;2.00;;
6111;SDS011;3086;48.802;9.394;2022-08-02T17:22:31;2.20;;;2.00;;
6111;SDS011;3086;48.802;9.394;2022-08-02T17:25:52;3.00;;;2.10;;
6111;SDS011;3086;48.802;9.394;2022-08-02T17:29:14;2.77;;;2.20;;
6111;SDS011;3086;48.802;9.394;2022-08-02T17:32:37;2.23;;;2.10;;
6111;SDS011;3086;48.802;9.394;2022-08-02T17:35:59;2.90;;;2.10;;
6111;SDS011;3086;48.802;9.394;2022-08-02T17:39:20;3.00;;;2.37;;
6111;SDS011;3086;48.802;9.394;2022-08-02T17:42:42;2.50;;;2.30;;
6111;SDS011;3086;48.802;9.394;2022-08-02T17:46:04;1.97;;;1.87;;
6111;SDS011;3086;48.802;9.394;2022-08-02T17:49:27;3.27;;;1.97;;
6111;SDS011;3086;48.802;9.394;2022-08-02T17:52:48;2.70;;;2.00;;
6111;SDS011;3086;48.802;9.394;2022-08-02T17:56:10;3.27;;;2.37;;
6111;SDS011;3086;48.802;9.394;2022-08-02T17:59:31;3.67;;;2.17;;
6111;SDS011;3086;48.802;9.394;2022-08-02T18:02:54;2.30;;;2.10;;
6111;SDS011;3086;48.802;9.394;2022-08-02T18:06:17;2.30;;;2.10;;
6111;SDS011;3086;48.802;9.394;2022-08-02T18:09:38;3.03;;;2.20;;
6111;SDS011;3086;48.802;9.394;2022-08-02T18:13:00;4.13;;;2.50;;
6111;SDS011;3086;48.802;9.394;2022-08-02T18:16:24;3.20;;;2.80;;
6111;SDS011;3086;48.802;9.394;2022-08-02T18:19:45;4.10;;;2.80;;
6111;SDS011;3086;48.802;9.394;2022-08-02T18:23:09;5.40;;;2.77;;
6111;SDS011;3086;48.802;9.394;2022-08-02T18:26:31;4.50;;;2.80;;
6111;SDS011;3086;48.802;9.394;2022-08-02T18:29:54;3.00;;;2.70;;
6111;SDS011;3086;48.802;9.394;2022-08-02T18:33:15;2.67;;;2.37;;
6111;SDS011;3086;48.802;9.394;2022-08-02T18:36:37;4.97;;;2.77;;
6111;SDS011;3086;48.802;9.394;2022-08-02T18:40:00;7.53;;;2.97;;
6111;SDS011;3086;48.802;9.394;2022-08-02T18:43:21;3.23;;;2.60;;
6111;SDS011;3086;48.802;9.394;2022-08-02T18:46:43;3.30;;;3.00;;
6111;SDS011;3086;48.802;9.394;2022-08-02T18:50:05;4.57;;;2.80;;
6111;SDS011;3086;48.802;9.394;2022-08-02T18:53:27;3.20;;;2.93;;
6111;SDS011;3086;48.802;9.394;2022-08-02T18:56:50;3.37;;;2.80;;
6111;SDS011;3086;48.802;9.394;2022-08-02T19:00:13;4.63;;;3.03;;
6111;SDS011;3086;48.802;9.394;2022-08-02T19:03:36;4.80;;;2.87;;
6111;SDS011;3086;48.802;9.394;2022-08-02T19:06:57;3.50;;;3.20;;
6111;SDS011;3086;48.802;9.394;2022-08-02T19:10:19;3.27;;;2.60;;
6111;SDS011;3086;48.802;9.394;2022-08-02T19:13:42;3.03;;;2.83;;
6111;SDS011;3086;48.802;9.394;2022-08-02T19:17:03;5.03;;;2.40;;
6111;SDS011;3086;48.802;9.394;2022-08-02T19:20:25;3.70;;;3.07;;
6111;SDS011;3086;48.802;9.394;2022-08-02T19:23:47;5.90;;;2.80;;
6111;SDS011;3086;48.802;9.394;2022-08-02T19:27:09;2.93;;;2.60;;
6111;SDS011;3086;48.802;9.394;2022-08-02T19:30:32;5.30;;;2.90;;
6111;SDS011;3086;48.802;9.394;2022-08-02T19:33:54;4.60;;;2.93;;
6111;SDS011;3086;48.802;9.394;2022-08-02T19:37:15;4.40;;;2.90;;
6111;SDS011;3086;48.802;9.394;2022-08-02T19:40:37;7.63;;;3.00;;
6111;SDS011;3086;48.802;9.394;2022-08-02T19:44:00;3.40;;;3.10;;
6111;SDS011;3086;48.802;9.394;2022-08-02T19:47:23;2.90;;;2.70;;
6111;SDS011;3086;48.802;9.394;2022-08-02T19:50:45;3.47;;;3.00;;
6111;SDS011;3086;48.802;9.394;2022-08-02T19:54:06;4.57;;;3.17;;
6111;SDS011;3086;48.802;9.394;2022-08-02T19:57:28;3.20;;;3.00;;
6111;SDS011;3086;48.802;9.394;2022-08-02T20:00:50;3.77;;;3.27;;
6111;SDS011;3086;48.802;9.394;2022-08-02T20:04:13;4.73;;;3.17;;
6111;SDS011;3086;48.802;9.394;2022-08-02T20:07:35;4.57;;;3.10;;
6111;SDS011;3086;48.802;9.394;2022-08-02T20:11:02;3.67;;;3.17;;
6111;SDS011;3086;48.802;9.394;2022-08-02T20:14:24;3.40;;;3.10;;
6111;SDS011;3086;48.802;9.394;2022-08-02T20:17:46;3.30;;;3.00;;
6111;SDS011;3086;48.802;9.394;2022-08-02T20:21:09;3.70;;;3.40;;
6111;SDS011;3086;48.802;9.394;2022-08-02T20:24:31;3.50;;;3.20;;
6111;SDS011;3086;48.802;9.394;2022-08-02T20:27:52;3.93;;;3.40;;
6111;SDS011;3086;48.802;9.394;2022-08-02T20:31:14;8.77;;;3.40;;
6111;SDS011;3086;48.802;9.394;2022-08-02T20:34:36;3.67;;;3.30;;
6111;SDS011;3086;48.802;9.394;2022-08-02T20:37:58;3.73;;;3.20;;
6111;SDS011;3086;48.802;9.394;2022-08-02T20:41:20;3.20;;;2.90;;
6111;SDS011;3086;48.802;9.394;2022-08-02T20:44:42;3.47;;;3.17;;
6111;SDS011;3086;48.802;9.394;2022-08-02T20:48:04;3.20;;;3.00;;
6111;SDS011;3086;48.802;9.394;2022-08-02T20:51:26;5.27;;;2.83;;
6111;SDS011;3086;48.802;9.394;2022-08-02T20:54:49;6.60;;;2.87;;
6111;SDS011;3086;48.802;9.394;2022-08-02T20:58:11;3.50;;;3.20;;
6111;SDS011;3086;48.802;9.394;2022-08-02T21:01:33;4.83;;;3.20;;
6111;SDS011;3086;48.802;9.394;2022-08-02T21:04:55;4.47;;;3.23;;